Airport details for: EEPU (Estonia)

Metar

EEPU 111250Z 10005KT 060V140 CAVOK M01/M04 Q0998

General details

ICAO: EEPU
IATA: EPU
Name (city): Parnu
Major:
Country: Estonia
vACC: VACC Estonia
Description:

Pärnu Airport is an airport in Estonia, situated 4 km from the city of Pärnu.

Scenery links:
FS9 scenery:
FSX/P3D scenery:
XP scenery: Download
Elevation: 47 ft.
Transition altitude: 5000 ft.
MSA: 8100 ft.
Latitude: 58.418889
Longitude: 24.472778
EEPU Charts
EEPU Notams
EEPU Online stations

Runways

Number Course Length Elevation Lat Lon ILS ILS freq ILS FAC GP
03 29° 8136ft / 2480 m 21ft 58.409711 24.460547 - - 3.0°
21 209° 8136ft / 2480 m 47ft 58.427878 24.485097 - - 3.0°